Time;durP1;ratioP1;P1;durP2;ratioP2;P2;SDS_P1;SDS_P2;PMS_P1;PMS_P2;Temp;Humidity;BMP_temperature;BMP_pressure;BME280_temperature;BME280_humidity;BME280_pressure;Samples;Min_cycle;Max_cycle;Signal;HPM_P1;HPM_P2
2022/08/07 00:01:40;;;;;;;7.78;1.70;;;;;;;;;;4954028;28;20385;-60
2022/08/07 00:04:07;;;;;;;3.83;2.00;;;;;;;;;;4967822;28;20034;-59
2022/08/07 00:06:33;;;;;;;5.85;1.33;;;;;;;;;;4968573;28;20030;-59
2022/08/07 00:09:01;;;;;;;7.18;1.30;;;43.10;34.80;;;;;;4952312;28;20489;-59
2022/08/07 00:11:27;;;;;;;8.45;1.05;;;;;;;;;;4952694;28;20396;-62
2022/08/07 00:13:54;;;;;;;6.53;1.45;;;;;;;;;;4967941;28;20043;-59
2022/08/07 00:16:20;;;;;;;5.78;1.25;;;;;;;;;;4934479;28;20023;-59
2022/08/07 00:18:47;;;;;;;4.93;1.20;;;;;;;;;;4951925;28;20030;-59
2022/08/07 00:21:14;;;;;;;5.82;1.20;;;;;;;;;;4967902;28;20029;-59
2022/08/07 00:23:40;;;;;;;1.08;0.80;;;;;;;;;;4951870;28;21510;-60
2022/08/07 00:26:08;;;;;;;6.07;1.13;;;;;;;;;;4969567;28;20456;-60
2022/08/07 00:28:35;;;;;;;4.18;1.20;;;43.40;43.80;;;;;;4967993;28;20031;-60
2022/08/07 00:31:06;;;;;;;9.77;1.33;;;43.20;45.70;;;;;;4952917;28;20049;-57
2022/08/07 00:33:34;;;;;;;2.95;1.17;;;43.40;33.90;;;;;;4950085;28;20402;-57
2022/08/07 00:36:02;;;;;;;5.18;1.02;;;43.00;38.60;;;;;;4951599;28;20026;-59
2022/08/07 00:38:28;;;;;;;6.03;1.77;;;;;;;;;;4951650;28;20027;-57
2022/08/07 00:40:55;;;;;;;4.18;1.10;;;;;;;;;;4968432;28;20031;-60
2022/08/07 00:43:22;;;;;;;4.10;1.30;;;;;;;;;;4969644;28;20396;-59
2022/08/07 00:45:49;;;;;;;6.32;1.13;;;;;;;;;;4968068;28;20027;-60
2022/08/07 00:48:15;;;;;;;5.97;1.42;;;;;;;;;;4969293;28;20078;-61
2022/08/07 00:50:42;;;;;;;4.35;0.93;;;;;;;;;;4951924;28;20520;-59
2022/08/07 00:53:08;;;;;;;4.57;1.05;;;;;;;;;;4968657;28;20053;-58
2022/08/07 00:55:35;;;;;;;3.67;1.02;;;;;;;;;;4968041;28;20037;-59
2022/08/07 00:58:02;;;;;;;4.75;0.95;;;43.00;34.00;;;;;;4969842;28;20038;-59
2022/08/07 01:00:29;;;;;;;4.85;0.80;;;;;;;;;;4953166;28;20027;-59
2022/08/07 01:02:56;;;;;;;3.78;0.90;;;;;;;;;;4969135;28;20034;-59
2022/08/07 01:05:23;;;;;;;4.07;1.00;;;;;;;;;;4969020;28;20031;-60
2022/08/07 01:07:49;;;;;;;7.68;1.15;;;;;;;;;;4936264;28;20449;-62
2022/08/07 01:10:16;;;;;;;4.18;0.90;;;;;;;;;;4968998;28;20034;-60
2022/08/07 01:12:43;;;;;;;4.30;1.25;;;;;;;;;;4969178;28;20069;-60
2022/08/07 01:15:10;;;;;;;1.90;0.95;;;42.10;26.50;;;;;;4951325;28;20114;-61
2022/08/07 01:17:36;;;;;;;24.63;1.92;;;42.20;32.80;;;;;;4964636;28;20121;-60
2022/08/07 01:20:07;;;;;;;2.75;1.20;;;42.10;31.60;;;;;;4951719;28;20058;-59
2022/08/07 01:22:34;;;;;;;10.20;0.95;;;;;;;;;;4970857;28;20041;-58
2022/08/07 01:25:02;;;;;;;7.20;0.85;;;42.20;32.10;;;;;;4954999;28;20035;-59
2022/08/07 01:27:28;;;;;;;1.85;0.80;;;;;;;;;;4954902;28;20495;-59
2022/08/07 01:29:55;;;;;;;3.13;0.88;;;;;;;;;;4972039;28;20418;-60
2022/08/07 01:32:21;;;;;;;1.80;0.90;;;;;;;;;;4972036;28;20030;-60
2022/08/07 01:34:49;;;;;;;3.42;0.75;;;41.70;37.10;;;;;;4939445;28;20201;-58
2022/08/07 01:37:16;;;;;;;2.13;0.70;;;;;;;;;;4971401;28;20030;-60
2022/08/07 01:39:45;;;;;;;2.97;0.90;;;41.50;39.00;;;;;;4970725;28;20065;-62
2022/08/07 01:42:13;;;;;;;7.60;1.20;;;41.40;38.50;;;;;;4955876;28;20034;-62
2022/08/07 01:44:40;;;;;;;10.23;1.25;;;;;;;;;;4954234;28;20087;-60
2022/08/07 01:47:08;;;;;;;3.08;1.00;;;41.10;37.60;;;;;;4972321;28;20122;-60
2022/08/07 01:49:36;;;;;;;5.28;1.02;;;40.90;40.60;;;;;;4955062;28;20682;-59
2022/08/07 01:52:05;;;;;;;3.05;1.00;;;40.90;42.50;;;;;;4955255;28;20099;-59
2022/08/07 01:54:36;;;;;;;4.10;1.00;;;40.70;40.00;;;;;;4938887;28;20386;-60
2022/08/07 01:57:25;;;;;;;3.58;0.90;;;40.60;37.00;;;;;;4954376;28;20033;-60
2022/08/07 01:59:55;;;;;;;10.85;1.58;;;;;;;;;;4955812;28;20090;-57
2022/08/07 02:02:37;;;;;;;7.07;1.30;;;40.40;46.80;;;;;;4970982;28;20030;-58
2022/08/07 02:05:10;;;;;;;9.98;1.52;;;40.30;33.70;;;;;;4955424;28;20023;-59
2022/08/07 02:07:45;;;;;;;4.53;1.38;;;40.30;40.40;;;;;;4938527;28;20408;-61
2022/08/07 02:10:13;;;;;;;4.70;1.10;;;40.20;39.70;;;;;;4954556;28;20027;-58
2022/08/07 02:12:44;;;;;;;5.03;1.10;;;40.20;41.80;;;;;;4955346;28;20029;-58
2022/08/07 02:15:12;;;;;;;4.45;1.20;;;40.00;42.00;;;;;;4970121;28;20054;-60
2022/08/07 02:17:42;;;;;;;5.57;1.35;;;40.10;40.20;;;;;;4955045;28;20043;-59
2022/08/07 02:20:09;;;;;;;5.82;1.65;;;;;;;;;;4969982;28;20029;-59
2022/08/07 02:22:37;;;;;;;9.65;1.90;;;39.90;44.30;;;;;;4953046;28;20027;-62
2022/08/07 02:25:06;;;;;;;6.00;1.73;;;39.90;43.90;;;;;;4954141;28;20389;-58
2022/08/07 02:27:34;;;;;;;3.42;1.27;;;;;;;;;;4954497;28;20109;-60
2022/08/07 02:30:01;;;;;;;9.68;1.48;;;;;;;;;;4969860;28;20031;-61
2022/08/07 02:32:27;;;;;;;5.47;1.88;;;;;;;;;;4938075;28;20085;-58
2022/08/07 02:34:56;;;;;;;14.45;1.90;;;;;;;;;;4969807;28;20114;-60
2022/08/07 02:37:25;;;;;;;12.48;1.90;;;39.40;44.10;;;;;;4975386;28;20041;-60
2022/08/07 02:39:53;;;;;;;10.77;1.95;;;39.10;45.00;;;;;;4953504;28;20026;-60
2022/08/07 02:42:20;;;;;;;6.43;1.48;;;;;;;;;;4939073;28;20031;-59
2022/08/07 02:44:49;;;;;;;8.07;1.95;;;39.10;52.00;;;;;;4937497;28;20089;-60
2022/08/07 02:47:19;;;;;;;6.95;3.08;;;39.10;40.40;;;;;;4953819;28;20031;-61
2022/08/07 02:49:46;;;;;;;7.95;2.53;;;;;;;;;;4969848;28;20026;-60
2022/08/07 02:52:17;;;;;;;6.90;2.42;;;38.90;48.20;;;;;;4954311;28;20113;-60
2022/08/07 02:54:45;;;;;;;10.68;2.00;;;38.80;48.30;;;;;;4954484;28;20433;-58
2022/08/07 02:57:13;;;;;;;5.25;1.67;;;38.80;46.40;;;;;;4941218;28;20027;-60
2022/08/07 02:59:44;;;;;;;8.93;1.90;;;38.70;47.30;;;;;;4971181;28;20019;-59
2022/08/07 03:02:13;;;;;;;8.80;2.13;;;38.70;46.60;;;;;;4944208;28;20393;-55
2022/08/07 03:04:41;;;;;;;11.18;1.70;;;;;;;;;;4939457;28;20465;-58
2022/08/07 03:07:08;;;;;;;6.38;1.50;;;;;;;;;;4969504;28;20031;-60
2022/08/07 03:09:35;;;;;;;6.10;1.75;;;;;;;;;;4969549;28;20027;-60
2022/08/07 03:12:04;;;;;;;5.50;1.45;;;38.40;41.10;;;;;;4936973;28;20026;-58
2022/08/07 03:14:32;;;;;;;10.02;1.58;;;38.30;42.90;;;;;;4952411;28;20391;-62
2022/08/07 03:16:58;;;;;;;12.25;1.70;;;;;;;;;;4952917;28;20076;-57
2022/08/07 03:19:25;;;;;;;11.43;3.00;;;38.10;39.30;;;;;;4953409;28;20027;-60
2022/08/07 03:21:52;;;;;;;15.27;4.10;;;38.10;32.40;;;;;;4950460;28;20521;-58
2022/08/07 03:24:18;;;;;;;33.45;12.75;;;37.70;34.00;;;;;;4968720;28;20074;-58
2022/08/07 03:26:49;;;;;;;25.65;13.00;;;37.80;41.20;;;;;;4951992;28;20031;-61
2022/08/07 03:29:16;;;;;;;17.70;10.55;;;37.90;44.20;;;;;;4954048;28;20089;-59
2022/08/07 03:31:44;;;;;;;14.40;6.65;;;37.60;35.10;;;;;;4953042;28;20026;-61
2022/08/07 03:34:12;;;;;;;16.63;5.80;;;37.40;61.50;;;;;;4968446;28;20057;-59
2022/08/07 03:36:39;;;;;;;16.83;5.13;;;37.40;58.10;;;;;;4969005;28;20485;-59
2022/08/07 03:39:10;;;;;;;19.80;8.10;;;37.50;38.10;;;;;;4952724;28;20034;-58
2022/08/07 03:41:38;;;;;;;16.20;5.65;;;36.80;59.20;;;;;;4937912;28;20469;-62
2022/08/07 03:44:05;;;;;;;13.95;4.68;;;37.50;58.20;;;;;;4969444;28;20046;-61
2022/08/07 03:46:33;;;;;;;21.98;5.90;;;37.30;64.00;;;;;;4951887;28;20042;-60
2022/08/07 03:49:01;;;;;;;21.23;6.32;;;37.40;62.30;;;;;;4936291;28;20030;-63
2022/08/07 03:51:29;;;;;;;25.80;6.50;;;37.60;63.90;;;;;;4941168;28;20031;-63
2022/08/07 03:53:55;;;;;;;14.25;5.57;;;37.00;37.90;;;;;;4968930;28;20035;-64
2022/08/07 03:56:24;;;;;;;16.08;5.68;;;37.10;34.50;;;;;;4968072;28;20512;-62
2022/08/07 03:58:51;;;;;;;22.25;6.13;;;37.10;69.00;;;;;;4952679;28;20027;-62
2022/08/07 04:01:18;;;;;;;18.83;5.18;;;36.90;64.30;;;;;;4951997;28;20545;-63
2022/08/07 04:03:45;;;;;;;21.20;5.28;;;37.20;67.60;;;;;;4970543;28;20374;-64
2022/08/07 04:06:11;;;;;;;12.38;4.60;;;37.00;69.40;;;;;;4952218;28;20106;-61
2022/08/07 04:08:41;;;;;;;15.88;4.68;;;37.00;67.40;;;;;;4952612;28;20023;-62
2022/08/07 04:11:09;;;;;;;22.63;4.85;;;36.60;62.00;;;;;;4953126;28;20488;-63
2022/08/07 04:13:36;;;;;;;18.52;5.53;;;37.00;67.10;;;;;;4952345;28;20051;-60
2022/08/07 04:16:03;;;;;;;18.90;4.68;;;36.90;52.00;;;;;;4952380;28;20504;-61
2022/08/07 04:18:29;;;;;;;17.25;4.85;;;36.60;66.50;;;;;;4952897;28;20026;-64
2022/08/07 04:20:56;;;;;;;18.67;4.65;;;36.60;65.40;;;;;;4954962;28;20031;-61
2022/08/07 04:23:24;;;;;;;22.42;5.63;;;39.80;38.00;;;;;;4950772;28;20070;-60
2022/08/07 04:25:52;;;;;;;24.10;5.43;;;36.90;64.00;;;;;;4935313;28;20034;-62
2022/08/07 04:28:19;;;;;;;14.70;4.55;;;36.60;36.00;;;;;;4952471;28;20077;-62
2022/08/07 04:30:50;;;;;;;23.48;5.10;;;36.60;74.50;;;;;;4936894;28;20031;-61
2022/08/07 04:33:17;;;;;;;18.80;4.10;;;36.40;50.10;;;;;;4952350;28;20023;-62
2022/08/07 04:35:47;;;;;;;8.80;4.03;;;36.30;66.10;;;;;;4952468;28;20026;-61
2022/08/07 04:38:14;;;;;;;19.85;4.40;;;36.30;36.30;;;;;;4964840;28;20027;-61
2022/08/07 04:40:43;;;;;;;21.65;4.18;;;36.40;35.00;;;;;;4952709;28;20027;-61
2022/08/07 04:43:10;;;;;;;18.60;4.88;;;36.00;77.30;;;;;;4953221;28;20077;-61
2022/08/07 04:45:58;;;;;;;28.98;5.57;;;36.50;49.60;;;;;;4953209;28;20095;-63
2022/08/07 04:48:45;;;;;;;17.95;4.80;;;37.70;42.30;;;;;;4952290;28;20117;-59
2022/08/07 04:51:45;;;;;;;22.73;5.07;;;35.50;46.60;;;;;;4952576;28;20087;-61
2022/08/07 04:54:22;;;;;;;26.13;6.43;;;36.20;62.00;;;;;;4956988;28;20081;-63
2022/08/07 04:57:10;;;;;;;45.78;9.77;;;36.30;33.70;;;;;;4952783;28;20034;-61
2022/08/07 04:59:47;;;;;;;37.72;10.10;;;36.70;43.00;;;;;;4973740;28;20551;-63
2022/08/07 05:02:29;;;;;;;42.50;8.85;;;36.60;44.60;;;;;;4956882;28;20039;-61
2022/08/07 05:05:14;;;;;;;59.30;9.98;;;36.90;45.50;;;;;;4941608;28;20158;-63
2022/08/07 05:07:49;;;;;;;31.48;7.38;;;36.30;65.50;;;;;;4956651;28;20125;-60
2022/08/07 05:10:38;;;;;;;43.33;7.70;;;36.90;30.00;;;;;;4956383;28;20034;-61
2022/08/07 05:13:09;;;;;;;26.33;5.45;;;;;;;;;;4956149;28;20070;-64
2022/08/07 05:15:41;;;;;;;22.13;4.40;;;37.10;29.40;;;;;;4956281;28;20027;-62
2022/08/07 05:18:26;;;;;;;21.35;4.93;;;37.20;59.50;;;;;;4940551;28;20405;-61
2022/08/07 05:21:01;;;;;;;19.60;3.83;;;37.10;46.80;;;;;;4973701;28;20031;-63
2022/08/07 05:24:05;;;;;;;21.35;3.55;;;37.10;28.90;;;;;;4953659;28;20486;-61
2022/08/07 05:26:34;;;;;;;15.32;2.90;;;37.00;52.40;;;;;;4896606;29;20040;-60
2022/08/07 05:29:03;;;;;;;18.23;2.30;;;37.10;28.60;;;;;;4912266;29;20130;-61
2022/08/07 05:31:37;;;;;;;16.35;2.25;;;36.90;60.20;;;;;;4927591;29;20171;-61
2022/08/07 05:34:09;;;;;;;13.35;2.15;;;37.50;68.60;;;;;;4911464;29;20040;-60
2022/08/07 05:36:38;;;;;;;11.10;2.08;;;37.10;28.50;;;;;;4928704;29;20044;-61
2022/08/07 05:39:06;;;;;;;10.07;1.95;;;37.00;28.70;;;;;;4912844;29;20533;-60
2022/08/07 05:41:33;;;;;;;13.27;7.32;;;36.70;69.30;;;;;;4915586;29;20087;-60
2022/08/07 05:44:00;;;;;;;9.50;4.00;;;36.90;30.50;;;;;;4912222;29;20031;-64
2022/08/07 05:46:27;;;;;;;8.93;2.15;;;37.00;31.20;;;;;;4911524;29;20091;-63
2022/08/07 05:48:54;;;;;;;9.63;1.83;;;;;;;;;;4911252;29;20540;-58
2022/08/07 05:51:21;;;;;;;7.68;1.90;;;36.70;41.00;;;;;;4911162;29;20588;-63
2022/08/07 05:53:48;;;;;;;6.07;1.95;;;;;;;;;;4908764;29;20036;-62
2022/08/07 05:56:18;;;;;;;10.77;4.65;;;37.00;33.10;;;;;;4922174;29;20027;-60
2022/08/07 05:58:47;;;;;;;7.45;2.67;;;37.60;42.20;;;;;;4907898;29;20080;-60
2022/08/07 06:01:15;;;;;;;4.78;2.08;;;37.00;31.80;;;;;;4929785;28;20470;-60
2022/08/07 06:03:46;;;;;;;7.15;1.83;;;36.10;30.10;;;;;;4939693;28;20031;-61
2022/08/07 06:06:13;;;;;;;5.07;1.50;;;36.90;32.20;;;;;;4972144;28;20031;-62
2022/08/07 06:08:41;;;;;;;7.13;1.15;;;36.50;31.70;;;;;;4954714;28;20022;-61
2022/08/07 06:11:08;;;;;;;9.00;1.40;;;36.40;30.90;;;;;;4971281;28;20109;-61
2022/08/07 06:13:38;;;;;;;7.22;1.42;;;36.80;28.70;;;;;;4938809;28;20141;-58
2022/08/07 06:16:07;;;;;;;6.13;1.17;;;37.10;46.60;;;;;;4970471;28;20138;-61
2022/08/07 06:18:33;;;;;;;8.60;1.58;;;36.90;30.60;;;;;;4968891;28;20122;-61
2022/08/07 06:21:01;;;;;;;8.13;1.60;;;36.30;70.30;;;;;;4970815;28;20030;-61
2022/08/07 06:23:29;;;;;;;7.13;1.58;;;37.30;56.20;;;;;;4971495;28;20370;-59
2022/08/07 06:25:56;;;;;;;6.55;1.25;;;;;;;;;;4968921;28;20109;-63
2022/08/07 06:28:23;;;;;;;7.13;1.45;;;;;;;;;;4954264;28;20113;-62
2022/08/07 06:30:49;;;;;;;3.28;1.35;;;36.20;63.90;;;;;;4972381;28;20486;-62
2022/08/07 06:33:17;;;;;;;3.58;1.38;;;36.70;31.60;;;;;;4971461;28;20496;-62
2022/08/07 06:35:45;;;;;;;4.05;1.50;;;36.30;31.50;;;;;;4953765;28;20030;-62
2022/08/07 06:38:11;;;;;;;7.22;1.55;;;;;;;;;;4953763;28;20103;-59
2022/08/07 06:40:46;;;;;;;3.10;0.95;;;36.10;60.40;;;;;;4968989;28;20088;-62
2022/08/07 06:43:14;;;;;;;5.20;1.60;;;36.00;29.10;;;;;;4954438;28;20031;-60
2022/08/07 06:45:41;;;;;;;9.77;1.40;;;36.40;50.40;;;;;;4954067;28;20034;-63
2022/08/07 06:48:07;;;;;;;7.78;1.67;;;;;;;;;;4953915;28;20081;-62
2022/08/07 06:50:37;;;;;;;4.60;1.30;;;36.00;34.20;;;;;;4953698;28;20488;-61
2022/08/07 06:53:06;;;;;;;1.83;1.00;;;35.70;30.30;;;;;;4953346;28;20094;-60
2022/08/07 06:55:34;;;;;;;7.95;1.60;;;36.00;30.40;;;;;;4938205;28;20559;-61
2022/08/07 06:58:06;;;;;;;9.52;2.90;;;35.90;63.50;;;;;;4954567;28;20082;-62
2022/08/07 07:00:39;;;;;;;8.27;3.13;;;35.90;30.00;;;;;;4954630;28;20121;-62
2022/08/07 07:03:07;;;;;;;8.98;3.33;;;36.00;62.80;;;;;;4954040;28;20084;-64
2022/08/07 07:05:33;;;;;;;4.90;2.72;;;;;;;;;;4953899;28;20117;-60
2022/08/07 07:08:00;;;;;;;7.13;1.88;;;35.40;62.30;;;;;;4969089;28;20027;-62
2022/08/07 07:10:34;;;;;;;6.38;1.80;;;35.80;66.80;;;;;;4937978;28;21023;-62
2022/08/07 07:13:16;;;;;;;5.20;1.80;;;35.60;38.90;;;;;;4939530;28;20074;-60
2022/08/07 07:15:47;;;;;;;6.10;1.80;;;35.60;48.90;;;;;;4970581;28;20436;-61
2022/08/07 07:18:22;;;;;;;3.95;1.90;;;35.30;50.60;;;;;;4953420;28;20034;-60
2022/08/07 07:20:56;;;;;;;12.63;2.05;;;35.40;33.60;;;;;;4955615;28;20026;-60
2022/08/07 07:23:24;;;;;;;5.25;2.35;;;35.40;58.90;;;;;;4937754;28;20035;-61
2022/08/07 07:25:55;;;;;;;9.25;2.05;;;35.00;30.40;;;;;;4951175;28;20063;-61
2022/08/07 07:28:36;;;;;;;11.30;2.33;;;35.40;56.60;;;;;;4966899;28;20034;-61
2022/08/07 07:31:20;;;;;;;7.97;1.95;;;35.30;55.50;;;;;;4952921;28;20035;-61
2022/08/07 07:33:51;;;;;;;5.65;2.28;;;35.30;31.60;;;;;;4953139;28;20027;-64
2022/08/07 07:36:19;;;;;;;7.50;1.88;;;35.30;31.10;;;;;;4952915;28;20105;-62
2022/08/07 07:38:47;;;;;;;13.27;1.80;;;35.30;31.80;;;;;;4937333;28;20495;-61
2022/08/07 07:41:16;;;;;;;6.30;1.60;;;35.20;33.60;;;;;;4953230;28;20102;-62
2022/08/07 07:43:45;;;;;;;10.48;1.70;;;35.10;32.60;;;;;;4953780;28;20027;-59
2022/08/07 07:46:14;;;;;;;7.32;1.58;;;35.00;32.70;;;;;;4969785;28;20030;-61
2022/08/07 07:48:41;;;;;;;7.63;1.58;;;34.80;68.00;;;;;;4969569;28;20506;-63
2022/08/07 07:51:09;;;;;;;15.38;2.40;;;34.90;58.70;;;;;;4952976;28;20380;-61
2022/08/07 07:53:40;;;;;;;8.85;1.95;;;34.80;36.70;;;;;;4952657;28;20441;-60
2022/08/07 07:56:08;;;;;;;9.23;2.50;;;34.20;70.10;;;;;;4968527;28;20030;-60
2022/08/07 07:58:38;;;;;;;8.43;2.00;;;34.40;35.20;;;;;;4936287;28;20027;-60
2022/08/07 08:01:06;;;;;;;10.95;2.47;;;34.60;34.90;;;;;;4969844;28;20031;-60
2022/08/07 08:03:35;;;;;;;9.85;1.80;;;34.20;47.60;;;;;;4968446;28;20046;-61
2022/08/07 08:06:02;;;;;;;8.68;2.28;;;34.50;31.20;;;;;;4937158;28;20082;-60
2022/08/07 08:08:31;;;;;;;13.65;3.85;;;34.50;66.30;;;;;;4952688;28;20031;-60
2022/08/07 08:10:59;;;;;;;11.52;3.53;;;34.70;63.60;;;;;;4937225;28;20034;-60
2022/08/07 08:13:28;;;;;;;8.48;2.92;;;34.60;31.10;;;;;;4969582;28;20070;-60
2022/08/07 08:15:57;;;;;;;5.95;2.13;;;34.60;67.10;;;;;;4968749;28;20027;-62
2022/08/07 08:18:26;;;;;;;11.45;2.58;;;34.60;31.70;;;;;;4952485;28;20033;-60
2022/08/07 08:20:52;;;;;;;10.52;2.85;;;34.50;34.20;;;;;;4936728;28;20390;-59
2022/08/07 08:28:54;;;;;;;7.93;3.78;;;34.70;74.40;;;;;;4967166;28;20544;-61
2022/08/07 08:31:28;;;;;;;22.58;4.63;;;34.40;33.50;;;;;;4968612;28;20078;-59
2022/08/07 08:33:55;;;;;;;12.30;4.00;;;34.30;34.80;;;;;;4955306;28;20023;-59
2022/08/07 08:36:31;;;;;;;9.80;3.80;;;34.30;40.60;;;;;;4956736;28;20557;-59
2022/08/07 08:39:00;;;;;;;8.07;3.58;;;34.40;37.90;;;;;;4975893;28;20050;-60
2022/08/07 08:41:45;;;;;;;11.82;4.05;;;33.90;51.40;;;;;;4956084;28;20050;-62
2022/08/07 08:44:50;;;;;;;17.88;3.90;;;34.20;34.50;;;;;;4973766;28;20023;-64
2022/08/07 08:47:19;;;;;;;16.25;4.80;;;33.80;70.80;;;;;;4969705;28;20031;-64
2022/08/07 08:50:16;;;;;;;13.27;4.30;;;34.00;33.10;;;;;;4956093;28;20027;-61
2022/08/07 08:52:52;;;;;;;14.23;3.83;;;33.70;75.60;;;;;;4956188;28;20050;-61
2022/08/07 08:55:32;;;;;;;7.65;2.88;;;33.90;34.20;;;;;;4955597;28;20437;-61
2022/08/07 08:58:18;;;;;;;18.63;3.33;;;33.80;71.50;;;;;;4960230;28;20022;-63
2022/08/07 09:01:01;;;;;;;8.70;2.47;;;32.30;32.70;;;;;;4972410;28;20027;-61
2022/08/07 09:03:38;;;;;;;8.60;2.45;;;33.80;69.00;;;;;;4973768;28;20504;-61
2022/08/07 09:06:16;;;;;;;14.55;2.22;;;33.40;72.70;;;;;;4956013;28;20039;-63
2022/08/07 09:08:54;;;;;;;3.25;1.60;;;33.20;65.60;;;;;;4973500;28;20031;-61
2022/08/07 09:11:34;;;;;;;7.72;1.45;;;33.20;76.50;;;;;;4955682;28;20034;-62
2022/08/07 09:14:11;;;;;;;4.88;1.40;;;33.40;33.60;;;;;;4973370;28;20108;-62
2022/08/07 09:16:53;;;;;;;8.27;1.50;;;33.80;73.20;;;;;;4972440;28;20489;-64
2022/08/07 09:19:22;;;;;;;7.88;1.30;;;33.50;75.60;;;;;;4940001;28;20033;-60
2022/08/07 09:22:12;;;;;;;12.77;1.45;;;33.70;33.10;;;;;;4955322;28;20022;-62
2022/08/07 09:24:40;;;;;;;17.33;2.22;;;33.70;34.10;;;;;;4955204;28;20061;-61
2022/08/07 09:27:37;;;;;;;7.68;1.30;;;33.70;33.00;;;;;;4955086;28;20146;-62
2022/08/07 09:30:08;;;;;;;;;;;33.70;39.60;;;;;;4954086;28;20500;-61
2022/08/07 09:32:56;;;;;;;106.63;8.13;;;34.00;40.50;;;;;;4954033;28;19910;-62
2022/08/07 09:35:35;;;;;;;194.77;13.45;;;34.10;91.60;;;;;;4956012;28;20804;-59
2022/08/07 09:38:06;;;;;;;313.00;19.42;;;34.20;95.90;;;;;;4955384;28;20385;-57
2022/08/07 09:40:54;;;;;;;428.27;24.35;;;34.20;61.50;;;;;;4972466;28;20025;-58
2022/08/07 09:43:38;;;;;;;306.95;20.65;;;34.20;65.80;;;;;;4954184;28;20085;-58
2022/08/07 09:46:17;;;;;;;276.45;17.92;;;;;;;;;;4949180;28;20022;-56
2022/08/07 09:48:59;;;;;;;273.45;17.40;;;33.90;70.50;;;;;;4956425;28;21395;-58
2022/08/07 09:51:43;;;;;;;270.35;18.40;;;33.70;71.00;;;;;;4954233;28;20065;-61
2022/08/07 09:54:24;;;;;;;238.43;16.92;;;33.50;73.50;;;;;;4955049;28;20031;-59
2022/08/07 09:57:25;;;;;;;309.67;20.38;;;33.50;82.60;;;;;;4954933;28;20039;-58
2022/08/07 09:59:54;;;;;;;331.67;21.55;;;;;;;;;;4955139;28;20082;-58
2022/08/07 10:03:00;;;;;;;378.08;26.10;;;33.00;79.40;;;;;;4975275;28;20381;-56
2022/08/07 10:05:31;;;;;;;361.95;23.17;;;32.70;99.90;;;;;;4939075;28;20393;-56
2022/08/07 10:08:15;;;;;;;431.92;30.08;;;34.30;82.10;;;;;;4972275;28;20019;-60
2022/08/07 10:10:41;;;;;;;521.45;33.67;;;32.50;87.20;;;;;;4971401;28;20117;-60
2022/08/07 10:13:25;;;;;;;331.02;22.13;;;32.60;81.40;;;;;;4954661;28;20030;-58
2022/08/07 10:16:15;;;;;;;260.52;22.38;;;32.60;80.40;;;;;;4955336;28;20030;-57
2022/08/07 10:19:06;;;;;;;398.92;30.48;;;32.50;83.90;;;;;;4972214;28;20023;-57
2022/08/07 10:21:52;;;;;;;373.17;26.85;;;32.40;79.10;;;;;;4954431;28;20027;-61
2022/08/07 10:24:56;;;;;;;411.13;28.38;;;32.40;75.40;;;;;;4971604;28;20033;-57
2022/08/07 10:27:58;;;;;;;382.70;27.27;;;32.30;78.30;;;;;;4880907;29;20050;-60
2022/08/07 10:30:49;;;;;;;413.80;30.70;;;32.30;99.90;;;;;;4865289;29;20476;-60
2022/08/07 10:33:21;;;;;;;278.30;24.75;;;32.30;76.50;;;;;;4876212;29;20040;-57
2022/08/07 10:35:48;;;;;;;242.27;20.35;;;32.20;99.90;;;;;;4879297;29;20029;-57
2022/08/07 10:38:14;;;;;;;313.30;24.77;;;;;;;;;;4879688;29;20495;-59
2022/08/07 10:41:05;;;;;;;258.67;19.60;;;31.90;99.90;;;;;;4880318;29;20039;-59
2022/08/07 10:44:01;;;;;;;154.48;15.07;;;32.00;99.90;;;;;;4879311;29;20041;-59
2022/08/07 10:46:35;;;;;;;128.55;14.75;;;31.80;80.20;;;;;;4864804;29;20047;-58
2022/08/07 10:49:22;;;;;;;151.25;15.18;;;31.40;99.90;;;;;;4873591;29;20560;-57
2022/08/07 10:51:54;;;;;;;178.13;15.52;;;31.90;99.90;;;;;;4878303;29;20034;-59
2022/08/07 10:54:43;;;;;;;240.98;19.40;;;31.70;99.90;;;;;;4878590;29;20029;-57
2022/08/07 10:57:12;;;;;;;253.30;20.55;;;31.40;96.10;;;;;;4881163;29;20040;-57
2022/08/07 11:00:08;;;;;;;225.98;19.92;;;31.30;99.20;;;;;;4878436;29;20072;-57
2022/08/07 11:02:56;;;;;;;246.82;22.23;;;31.70;94.20;;;;;;4912957;28;21386;-58
2022/08/07 11:05:45;;;;;;;147.90;17.42;;;31.50;80.40;;;;;;4969403;28;20136;-59
2022/08/07 11:08:40;;;;;;;276.00;20.45;;;31.20;80.20;;;;;;4953841;28;20145;-60
2022/08/07 11:11:24;;;;;;;176.20;16.30;;;31.40;81.20;;;;;;4953207;28;20505;-62
2022/08/07 11:14:32;;;;;;;186.80;15.55;;;31.40;81.20;;;;;;4937919;28;20444;-58
2022/08/07 11:17:32;;;;;;;159.38;13.45;;;31.40;81.00;;;;;;4958552;28;20081;-56
2022/08/07 11:20:07;;;;;;;216.85;18.00;;;31.40;80.20;;;;;;4924862;28;20074;-59
2022/08/07 11:22:58;;;;;;;292.67;19.02;;;31.50;95.40;;;;;;4952757;28;20079;-56
2022/08/07 11:25:27;;;;;;;278.83;21.55;;;31.20;94.90;;;;;;4970576;28;20036;-61
2022/08/07 11:28:07;;;;;;;326.58;24.92;;;31.00;93.00;;;;;;4954109;28;20098;-57
2022/08/07 11:30:56;;;;;;;255.88;21.15;;;31.20;95.80;;;;;;4947553;28;20113;-59
2022/08/07 11:33:43;;;;;;;218.63;17.85;;;31.40;78.20;;;;;;4922705;28;20076;-58
2022/08/07 11:36:25;;;;;;;210.50;18.10;;;31.50;94.20;;;;;;4967447;28;20056;-60
2022/08/07 11:39:07;;;;;;;171.65;13.82;;;31.00;88.10;;;;;;4967092;28;20055;-62
2022/08/07 11:41:44;;;;;;;124.63;11.82;;;31.10;80.40;;;;;;4953262;28;20057;-57
2022/08/07 11:44:43;;;;;;;117.60;13.07;;;31.50;96.60;;;;;;4937244;28;20062;-60
2022/08/07 11:47:22;;;;;;;97.57;10.88;;;31.10;99.90;;;;;;4953415;28;20075;-58
2022/08/07 11:50:20;;;;;;;68.78;8.63;;;31.20;88.00;;;;;;4970121;28;20047;-60
2022/08/07 11:53:08;;;;;;;59.17;8.32;;;31.60;99.90;;;;;;4949090;28;20043;-58
2022/08/07 11:56:13;;;;;;;67.82;7.97;;;31.30;86.90;;;;;;4937016;28;20442;-58
2022/08/07 11:58:55;;;;;;;67.80;7.45;;;31.10;99.90;;;;;;4952068;28;20045;-56
2022/08/07 12:01:37;;;;;;;62.58;7.25;;;31.40;96.90;;;;;;4953068;28;20448;-59
2022/08/07 12:04:19;;;;;;;67.88;7.25;;;31.10;79.10;;;;;;4951440;28;20066;-61
2022/08/07 12:07:11;;;;;;;70.63;7.70;;;30.90;98.60;;;;;;4951574;28;20031;-62
2022/08/07 12:09:45;;;;;;;67.53;7.68;;;31.30;94.10;;;;;;4952250;28;20026;-59
2022/08/07 12:12:27;;;;;;;93.75;8.85;;;31.10;99.60;;;;;;4951940;28;20050;-60
2022/08/07 12:15:28;;;;;;;112.25;10.15;;;31.00;99.90;;;;;;4952915;28;20042;-62
2022/08/07 12:18:18;;;;;;;111.90;10.52;;;31.20;88.40;;;;;;4907521;29;20564;-56
2022/08/07 12:20:59;;;;;;;109.38;9.70;;;31.50;99.90;;;;;;4909562;29;20447;-58
2022/08/07 12:23:39;;;;;;;87.13;8.20;;;31.80;99.90;;;;;;4910774;29;20604;-60
2022/08/07 12:26:29;;;;;;;74.68;7.78;;;31.10;99.90;;;;;;4909104;29;20047;-61
2022/08/07 12:29:40;;;;;;;66.07;6.60;;;31.40;99.90;;;;;;4898538;29;20036;-57
2022/08/07 12:32:09;;;;;;;47.45;6.70;;;31.20;99.90;;;;;;4911927;29;20063;-57
2022/08/07 12:34:39;;;;;;;67.60;7.03;;;31.30;99.90;;;;;;4925107;29;20035;-58
2022/08/07 12:37:09;;;;;;;50.33;6.20;;;31.10;95.40;;;;;;4913999;29;20405;-58
2022/08/07 12:39:39;;;;;;;53.20;5.65;;;31.40;74.40;;;;;;4924119;29;20060;-57
2022/08/07 12:42:08;;;;;;;46.40;5.82;;;31.20;74.60;;;;;;4906154;29;20060;-57
2022/08/07 12:44:38;;;;;;;49.17;5.72;;;31.30;73.70;;;;;;4909859;29;20050;-58
2022/08/07 12:47:35;;;;;;;36.30;4.68;;;31.60;73.80;;;;;;4907394;29;20103;-55
2022/08/07 12:50:20;;;;;;;33.97;4.90;;;31.40;99.80;;;;;;4910530;29;20023;-56
2022/08/07 12:53:02;;;;;;;30.92;4.78;;;31.50;73.20;;;;;;4907853;29;20048;-56
2022/08/07 12:55:43;;;;;;;32.08;5.07;;;31.50;73.90;;;;;;4959606;28;20046;-60
2022/08/07 12:58:15;;;;;;;36.78;5.28;;;31.60;99.90;;;;;;4969642;28;20624;-61
2022/08/07 13:01:05;;;;;;;27.08;4.32;;;31.50;73.30;;;;;;4937070;28;20481;-57
2022/08/07 13:04:09;;;;;;;34.25;4.65;;;31.60;71.70;;;;;;4970284;28;20169;-59
2022/08/07 13:07:12;;;;;;;28.38;4.60;;;31.70;71.30;;;;;;4951806;28;20022;-59
2022/08/07 13:09:57;;;;;;;37.45;4.93;;;31.60;99.90;;;;;;4952679;28;20030;-57
2022/08/07 13:12:45;;;;;;;39.17;4.50;;;31.50;71.30;;;;;;4969412;28;20030;-59
2022/08/07 13:15:36;;;;;;;32.30;4.63;;;31.70;71.70;;;;;;4963103;28;20082;-58
2022/08/07 13:18:41;;;;;;;39.50;5.55;;;31.70;70.40;;;;;;4964960;28;20058;-60
2022/08/07 13:21:37;;;;;;;32.10;6.65;;;31.60;99.90;;;;;;4966059;28;20118;-59
2022/08/07 13:24:20;;;;;;;34.15;7.22;;;31.80;88.70;;;;;;4970249;28;20544;-59
2022/08/07 13:27:05;;;;;;;36.53;8.90;;;32.70;78.10;;;;;;4967678;28;20110;-59
2022/08/07 13:29:52;;;;;;;31.88;8.32;;;31.90;98.10;;;;;;4950796;28;20090;-59
2022/08/07 13:32:49;;;;;;;40.78;8.43;;;31.80;98.00;;;;;;4947510;28;20019;-60
2022/08/07 13:35:28;;;;;;;37.03;8.20;;;32.00;99.90;;;;;;4963632;28;20039;-59
2022/08/07 13:38:07;;;;;;;41.55;8.00;;;32.00;97.50;;;;;;4952712;28;20031;-59
2022/08/07 13:40:48;;;;;;;29.77;5.80;;;32.00;76.20;;;;;;4936346;28;20030;-58